Time;durP1;ratioP1;P1;durP2;ratioP2;P2;SDS_P1;SDS_P2;PMS_P1;PMS_P2;Temp;Humidity;BMP_temperature;BMP_pressure;BME280_temperature;BME280_humidity;BME280_pressure;Samples;Min_cycle;Max_cycle;Signal;HPM_P1;HPM_P2
2023/04/30 00:00:57;;;;;;;3.63;1.45;;;;;;;;;;5094068;28;20047;-62
2023/04/30 00:03:23;;;;;;;5.40;1.70;;;17.80;84.10;;;;;;5094436;28;20047;-62
2023/04/30 00:05:52;;;;;;;2.97;1.40;;;17.60;84.00;;;;;;5112996;28;20066;-62
2023/04/30 00:08:17;;;;;;;5.50;1.83;;;17.60;83.90;;;;;;5110896;28;20050;-62
2023/04/30 00:10:43;;;;;;;4.60;1.38;;;;;;;;;;5112736;28;20036;-62
2023/04/30 00:13:09;;;;;;;5.55;1.55;;;17.50;83.80;;;;;;5112890;28;20044;-62
2023/04/30 00:15:35;;;;;;;4.53;1.67;;;16.90;79.80;;;;;;5094557;28;20077;-64
2023/04/30 00:18:02;;;;;;;5.97;1.60;;;;;;;;;;5083782;28;20044;-63
2023/04/30 00:20:27;;;;;;;4.18;1.38;;;17.50;83.80;;;;;;5112200;28;20397;-61
2023/04/30 00:22:54;;;;;;;4.22;1.50;;;;;;;;;;5112704;28;20047;-63
2023/04/30 00:25:23;;;;;;;3.22;1.60;;;;;;;;;;5115025;28;20116;-62
2023/04/30 00:27:49;;;;;;;5.88;1.88;;;;;;;;;;5114344;28;20105;-62
2023/04/30 00:30:15;;;;;;;3.80;1.38;;;17.50;83.60;;;;;;5095299;28;20059;-62
2023/04/30 00:32:41;;;;;;;6.75;1.80;;;17.60;83.70;;;;;;5109206;28;20052;-62
2023/04/30 00:35:07;;;;;;;5.78;1.80;;;;;;;;;;5115681;28;20040;-62
2023/04/30 00:37:33;;;;;;;2.47;1.40;;;17.60;83.70;;;;;;5097122;28;20043;-61
2023/04/30 00:39:59;;;;;;;5.07;2.00;;;;;;;;;;5082928;28;20117;-62
2023/04/30 00:42:24;;;;;;;4.88;1.45;;;17.20;83.40;;;;;;5111575;28;20432;-62
2023/04/30 00:44:50;;;;;;;6.03;1.80;;;17.50;82.10;;;;;;5113018;28;20044;-62
2023/04/30 00:47:16;;;;;;;3.75;1.80;;;;;;;;;;5115728;28;20135;-61
2023/04/30 00:49:42;;;;;;;4.13;1.60;;;;;;;;;;5115801;28;20047;-62
2023/04/30 00:52:08;;;;;;;4.10;1.50;;;17.60;82.70;;;;;;5113691;28;20036;-61
2023/04/30 00:54:35;;;;;;;4.20;1.67;;;;;;;;;;5112732;28;20050;-65
2023/04/30 00:57:01;;;;;;;4.55;1.77;;;17.50;83.50;;;;;;5114875;28;20050;-65
2023/04/30 00:59:28;;;;;;;5.60;1.75;;;;;;;;;;5097908;28;20555;-64
2023/04/30 01:01:55;;;;;;;5.20;1.67;;;;;;;;;;5097426;28;20492;-65
2023/04/30 01:04:21;;;;;;;3.78;1.95;;;17.20;80.80;;;;;;5115586;28;20062;-66
2023/04/30 01:06:46;;;;;;;4.43;1.73;;;17.50;82.70;;;;;;5096414;28;20039;-65
2023/04/30 01:09:12;;;;;;;4.13;1.90;;;17.30;83.30;;;;;;5114453;28;20043;-62
2023/04/30 01:12:08;;;;;;;4.28;1.52;;;;;;;;;;5114248;28;20047;-62
2023/04/30 01:14:58;;;;;;;3.80;1.40;;;17.50;79.20;;;;;;5053190;28;20089;-61
2023/04/30 01:17:51;;;;;;;4.28;1.58;;;17.60;79.40;;;;;;5036101;28;20048;-62
2023/04/30 01:20:17;;;;;;;4.32;1.70;;;;;;;;;;5052553;28;20044;-62
2023/04/30 01:22:54;;;;;;;3.58;1.60;;;17.30;78.50;;;;;;5036727;28;20041;-64
2023/04/30 01:25:51;;;;;;;4.15;1.63;;;17.30;80.60;;;;;;5035570;28;20079;-61
2023/04/30 01:28:20;;;;;;;4.75;2.08;;;;;;;;;;5019351;28;20754;-63
2023/04/30 01:30:46;;;;;;;4.43;1.52;;;17.30;81.40;;;;;;5015321;28;20050;-63
2023/04/30 01:33:12;;;;;;;3.85;1.40;;;;;;;;;;5032780;28;20110;-62
2023/04/30 01:36:15;;;;;;;2.95;1.50;;;17.40;79.30;;;;;;5014515;28;20930;-61
2023/04/30 01:38:46;;;;;;;2.80;1.25;;;17.50;81.10;;;;;;5032161;28;20054;-62
2023/04/30 01:41:15;;;;;;;2.72;1.52;;;;;;;;;;5045123;28;20077;-63
2023/04/30 01:43:49;;;;;;;3.13;1.40;;;17.20;82.80;;;;;;5049390;28;20132;-66
2023/04/30 01:46:15;;;;;;;4.20;1.20;;;;;;;;;;5050697;28;20037;-65
2023/04/30 01:49:18;;;;;;;2.65;1.40;;;17.20;79.00;;;;;;5033156;28;20454;-65
2023/04/30 01:51:46;;;;;;;1.97;1.10;;;;;;;;;;5084611;28;20055;-66
2023/04/30 01:54:32;;;;;;;2.60;1.40;;;;;;;;;;5109739;28;20635;-66
2023/04/30 01:57:04;;;;;;;2.45;1.10;;;17.30;80.10;;;;;;5074795;28;20485;-61
2023/04/30 01:59:32;;;;;;;2.97;1.40;;;17.20;83.10;;;;;;5095542;28;20044;-61
2023/04/30 02:01:57;;;;;;;4.53;1.42;;;17.30;79.80;;;;;;5095575;28;20300;-62
2023/04/30 02:04:23;;;;;;;5.18;1.70;;;17.20;83.00;;;;;;5113979;28;20039;-62
2023/04/30 02:06:49;;;;;;;2.95;1.38;;;17.20;83.10;;;;;;5114970;28;20051;-61
2023/04/30 02:09:15;;;;;;;3.70;1.92;;;;;;;;;;5095643;28;20050;-62
2023/04/30 02:11:41;;;;;;;3.42;1.40;;;16.90;82.80;;;;;;5114803;28;20044;-61
2023/04/30 02:14:06;;;;;;;3.65;1.63;;;17.10;82.90;;;;;;5114577;28;20051;-62
2023/04/30 02:16:32;;;;;;;4.72;1.45;;;17.30;83.00;;;;;;5106561;28;20043;-62
2023/04/30 02:18:58;;;;;;;3.55;1.63;;;17.30;83.00;;;;;;5089212;28;20043;-61
2023/04/30 02:21:24;;;;;;;2.70;1.30;;;;;;;;;;5113909;28;20038;-62
2023/04/30 02:23:50;;;;;;;3.92;1.65;;;;;;;;;;5114578;28;20047;-61
2023/04/30 02:26:16;;;;;;;2.13;1.20;;;17.20;82.90;;;;;;5114165;28;20320;-61
2023/04/30 02:28:42;;;;;;;2.40;1.30;;;;;;;;;;5113776;28;20064;-62
2023/04/30 02:31:08;;;;;;;2.58;1.10;;;;;;;;;;5111722;28;20396;-62
2023/04/30 02:33:34;;;;;;;2.65;1.10;;;;;;;;;;5092629;28;20504;-62
2023/04/30 02:36:01;;;;;;;1.92;1.13;;;;;;;;;;5112842;28;20036;-63
2023/04/30 02:38:26;;;;;;;2.33;1.10;;;17.10;82.80;;;;;;5095315;28;20056;-61
2023/04/30 02:40:52;;;;;;;3.22;1.75;;;;;;;;;;5112933;28;20089;-61
2023/04/30 02:43:18;;;;;;;2.28;1.20;;;17.00;82.70;;;;;;5113892;28;20058;-61
2023/04/30 02:45:44;;;;;;;2.25;1.02;;;17.00;81.10;;;;;;5094376;28;20047;-62
2023/04/30 02:48:10;;;;;;;2.60;1.17;;;;;;;;;;5111346;28;20071;-61
2023/04/30 02:50:36;;;;;;;2.90;1.13;;;;;;;;;;5107152;28;20044;-62
2023/04/30 02:53:02;;;;;;;1.98;1.40;;;17.10;82.60;;;;;;5113370;28;20127;-61
2023/04/30 02:55:28;;;;;;;3.22;1.27;;;16.90;82.60;;;;;;5103920;28;20068;-62
2023/04/30 02:57:53;;;;;;;3.00;1.20;;;17.30;82.90;;;;;;5106738;28;20473;-62
2023/04/30 03:00:19;;;;;;;2.42;1.00;;;16.70;82.50;;;;;;5112915;28;20047;-61
2023/04/30 03:02:45;;;;;;;1.85;1.20;;;16.80;82.40;;;;;;5090298;28;20381;-62
2023/04/30 03:05:11;;;;;;;2.30;1.30;;;17.00;82.70;;;;;;5113680;28;20035;-62
2023/04/30 03:07:37;;;;;;;3.90;1.70;;;17.00;82.60;;;;;;5089807;28;20400;-62
2023/04/30 03:10:03;;;;;;;1.98;1.20;;;17.10;80.60;;;;;;5112738;28;20043;-62
2023/04/30 03:12:29;;;;;;;2.78;1.25;;;;;;;;;;5109838;28;20035;-66
2023/04/30 03:14:55;;;;;;;2.58;1.40;;;;;;;;;;5111403;28;20043;-65
2023/04/30 03:17:23;;;;;;;2.33;1.35;;;17.10;80.10;;;;;;5093959;28;20089;-66
2023/04/30 03:19:50;;;;;;;3.10;1.13;;;;;;;;;;5076606;28;20051;-63
2023/04/30 03:22:18;;;;;;;2.05;1.10;;;16.70;81.40;;;;;;5105687;28;20051;-61
2023/04/30 03:24:44;;;;;;;2.22;0.95;;;16.90;82.50;;;;;;5086422;28;20092;-62
2023/04/30 03:27:10;;;;;;;2.30;1.08;;;17.00;82.40;;;;;;5101306;28;20042;-61
2023/04/30 03:29:36;;;;;;;1.95;1.05;;;;;;;;;;5111437;28;20052;-62
2023/04/30 03:32:02;;;;;;;2.38;1.20;;;;;;;;;;5112913;28;20054;-64
2023/04/30 03:34:30;;;;;;;3.83;1.15;;;;;;;;;;5093606;28;20054;-62
2023/04/30 03:36:56;;;;;;;1.60;1.00;;;;;;;;;;5110669;28;20507;-62
2023/04/30 03:39:22;;;;;;;1.83;1.05;;;;;;;;;;5109476;28;20039;-63
2023/04/30 03:41:48;;;;;;;2.92;1.17;;;16.90;82.30;;;;;;5093193;28;20427;-62
2023/04/30 03:44:14;;;;;;;1.48;1.02;;;;;;;;;;5112103;28;20092;-65
2023/04/30 03:46:43;;;;;;;4.18;1.20;;;16.80;79.20;;;;;;5093731;28;20043;-63
2023/04/30 03:49:09;;;;;;;3.08;1.10;;;;;;;;;;5109242;28;20122;-65
2023/04/30 03:51:38;;;;;;;2.05;1.05;;;16.80;79.10;;;;;;5092626;28;20059;-62
2023/04/30 03:54:07;;;;;;;4.63;0.93;;;16.70;79.10;;;;;;5111696;28;20050;-63
2023/04/30 03:56:36;;;;;;;1.55;0.82;;;16.90;82.40;;;;;;5112154;28;20063;-65
2023/04/30 03:59:02;;;;;;;1.67;0.90;;;;;;;;;;5084619;28;20051;-66
2023/04/30 04:01:28;;;;;;;2.53;1.00;;;17.20;82.50;;;;;;5111734;28;20481;-66
2023/04/30 04:03:54;;;;;;;2.75;0.80;;;;;;;;;;5111577;28;20043;-65
2023/04/30 04:06:21;;;;;;;1.45;1.02;;;;;;;;;;5109818;28;20055;-65
2023/04/30 04:08:47;;;;;;;2.15;0.80;;;17.00;82.20;;;;;;5109801;28;20052;-65
2023/04/30 04:11:12;;;;;;;1.98;1.00;;;17.00;82.30;;;;;;5111362;28;20086;-66
2023/04/30 04:13:38;;;;;;;2.30;1.27;;;;;;;;;;5109980;28;20048;-66
2023/04/30 04:16:05;;;;;;;4.05;1.23;;;16.80;82.20;;;;;;5109306;28;20126;-62
2023/04/30 04:18:31;;;;;;;1.98;1.00;;;;;;;;;;5092756;28;20128;-61
2023/04/30 04:20:56;;;;;;;1.52;0.93;;;16.80;82.30;;;;;;5112569;28;20062;-61
2023/04/30 04:23:22;;;;;;;0.80;0.68;;;16.90;82.40;;;;;;5112241;28;20504;-61
2023/04/30 04:25:48;;;;;;;1.20;0.80;;;16.50;82.20;;;;;;5092178;28;20048;-62
2023/04/30 04:28:17;;;;;;;2.30;1.00;;;14.80;76.50;;;;;;5110046;28;20044;-62
2023/04/30 04:30:43;;;;;;;1.35;0.90;;;16.70;81.70;;;;;;5093420;28;20060;-61
2023/04/30 04:33:09;;;;;;;2.40;1.17;;;16.90;82.20;;;;;;5089774;28;20050;-61
2023/04/30 04:35:35;;;;;;;1.92;0.80;;;17.00;81.30;;;;;;5093661;28;20093;-62
2023/04/30 04:38:01;;;;;;;1.45;0.80;;;;;;;;;;5076103;28;20868;-63
2023/04/30 04:40:27;;;;;;;2.60;0.73;;;17.00;82.00;;;;;;5091805;28;20044;-62
2023/04/30 04:42:54;;;;;;;1.77;0.90;;;;;;;;;;5111975;28;20104;-61
2023/04/30 04:45:20;;;;;;;0.95;0.73;;;17.00;81.90;;;;;;5101723;28;20048;-61
2023/04/30 04:47:47;;;;;;;1.17;0.70;;;;;;;;;;5087962;28;20686;-62
2023/04/30 04:50:13;;;;;;;1.88;0.80;;;17.20;81.80;;;;;;5112259;28;20040;-61
2023/04/30 04:52:39;;;;;;;1.48;0.90;;;17.10;81.60;;;;;;5111630;28;20092;-62
2023/04/30 04:55:06;;;;;;;2.40;1.13;;;17.20;81.80;;;;;;5092549;28;20388;-61
2023/04/30 04:57:32;;;;;;;3.72;1.15;;;;;;;;;;5107806;28;20172;-61
2023/04/30 04:59:58;;;;;;;4.15;1.30;;;;;;;;;;5101763;28;20035;-62
2023/04/30 05:02:24;;;;;;;2.65;1.25;;;;;;;;;;5110991;28;20559;-60
2023/04/30 05:04:50;;;;;;;4.40;1.52;;;17.20;81.60;;;;;;5112136;28;20040;-61
2023/04/30 05:07:16;;;;;;;4.03;1.42;;;17.00;77.60;;;;;;5088174;28;20127;-61
2023/04/30 05:09:43;;;;;;;5.32;1.50;;;;;;;;;;5077154;28;20590;-63
2023/04/30 05:12:09;;;;;;;4.82;1.42;;;17.50;81.40;;;;;;5096994;28;20043;-62
2023/04/30 05:14:36;;;;;;;5.80;1.73;;;17.40;81.20;;;;;;5115915;28;20051;-61
2023/04/30 05:17:02;;;;;;;3.35;1.35;;;;;;;;;;5115114;28;20374;-64
2023/04/30 05:19:28;;;;;;;4.63;1.70;;;;;;;;;;5094994;28;20051;-65
2023/04/30 05:21:54;;;;;;;4.97;1.58;;;17.90;80.80;;;;;;5095693;28;20088;-63
2023/04/30 05:24:20;;;;;;;6.55;1.70;;;18.20;79.80;;;;;;5095380;28;20043;-61
2023/04/30 05:26:45;;;;;;;4.80;1.85;;;18.40;80.60;;;;;;5096269;28;20115;-67
2023/04/30 05:29:12;;;;;;;4.30;1.70;;;18.30;80.30;;;;;;5114543;28;20056;-62
2023/04/30 05:31:38;;;;;;;4.43;1.40;;;;;;;;;;5096219;28;20488;-61
2023/04/30 05:34:04;;;;;;;5.13;1.80;;;;;;;;;;5096611;28;20476;-66
2023/04/30 05:36:30;;;;;;;3.60;1.27;;;18.60;76.40;;;;;;5114672;28;20096;-65
2023/04/30 05:38:56;;;;;;;3.58;1.35;;;18.40;80.00;;;;;;5114391;28;20075;-65
2023/04/30 05:41:22;;;;;;;4.97;2.08;;;18.50;79.90;;;;;;5104308;28;20036;-62
2023/04/30 05:43:48;;;;;;;4.15;1.50;;;18.40;79.00;;;;;;5089109;28;20440;-62
2023/04/30 05:46:14;;;;;;;5.90;1.90;;;;;;;;;;5091249;28;20035;-63
2023/04/30 05:48:40;;;;;;;7.70;2.10;;;;;;;;;;5104611;28;20082;-61
2023/04/30 05:51:07;;;;;;;5.43;1.52;;;;;;;;;;5089820;28;20399;-66
2023/04/30 05:53:32;;;;;;;5.43;2.10;;;18.40;77.40;;;;;;5088394;28;20194;-65
2023/04/30 05:55:59;;;;;;;6.25;2.15;;;;;;;;;;5111488;28;20495;-66
2023/04/30 05:58:25;;;;;;;5.82;1.95;;;;;;;;;;5096508;28;20142;-65
2023/04/30 06:00:51;;;;;;;7.32;2.17;;;;;;;;;;5091996;28;20093;-66
2023/04/30 06:03:20;;;;;;;5.03;2.15;;;;;;;;;;5108713;28;20044;-65
2023/04/30 06:05:46;;;;;;;9.18;1.90;;;18.50;80.30;;;;;;5094400;28;20481;-65
2023/04/30 06:08:12;;;;;;;6.78;2.00;;;18.40;80.20;;;;;;5094145;28;20062;-66
2023/04/30 06:10:38;;;;;;;6.85;2.08;;;;;;;;;;5093391;28;20122;-61
2023/04/30 06:13:05;;;;;;;6.70;1.90;;;;;;;;;;5113121;28;20446;-62
2023/04/30 06:15:31;;;;;;;7.38;2.47;;;;;;;;;;5068443;28;20443;-62
2023/04/30 06:17:57;;;;;;;5.45;1.90;;;18.40;80.20;;;;;;5092471;28;20385;-62
2023/04/30 06:20:23;;;;;;;5.97;1.98;;;18.40;80.30;;;;;;5094517;28;20047;-66
2023/04/30 06:22:49;;;;;;;7.32;2.25;;;18.20;80.20;;;;;;5089895;28;20053;-65
2023/04/30 06:25:14;;;;;;;6.18;2.03;;;18.50;76.40;;;;;;5090084;28;20124;-65
2023/04/30 06:27:41;;;;;;;7.50;2.00;;;;;;;;;;5111737;28;20055;-64
2023/04/30 06:30:07;;;;;;;6.03;2.03;;;18.00;80.10;;;;;;5110486;28;20055;-66
2023/04/30 06:32:34;;;;;;;7.45;2.05;;;;;;;;;;5106711;28;20122;-65
2023/04/30 06:35:00;;;;;;;5.82;1.88;;;18.20;80.30;;;;;;5110074;28;20052;-65
2023/04/30 06:37:25;;;;;;;6.30;1.90;;;18.40;80.20;;;;;;5109654;28;20040;-65
2023/04/30 06:39:51;;;;;;;5.13;1.95;;;;;;;;;;5112617;28;20039;-62
2023/04/30 06:42:17;;;;;;;7.20;2.30;;;18.20;80.30;;;;;;5112503;28;20047;-62
2023/04/30 06:44:44;;;;;;;4.50;1.92;;;;;;;;;;5112537;28;20481;-62
2023/04/30 06:47:10;;;;;;;5.93;1.70;;;18.50;80.00;;;;;;5109649;28;20445;-62
2023/04/30 06:49:36;;;;;;;6.45;2.28;;;18.70;80.00;;;;;;5088938;28;20130;-62
2023/04/30 06:52:02;;;;;;;6.10;2.28;;;;;;;;;;5095144;28;20489;-62
2023/04/30 06:54:27;;;;;;;9.48;2.25;;;18.90;79.90;;;;;;5093868;28;20056;-63
2023/04/30 06:56:53;;;;;;;6.80;2.03;;;18.60;79.60;;;;;;5113046;28;20124;-61
2023/04/30 06:59:19;;;;;;;7.07;2.30;;;19.00;79.70;;;;;;5113269;28;20054;-61
2023/04/30 07:01:45;;;;;;;8.80;2.10;;;19.10;79.70;;;;;;5113988;28;20031;-61
2023/04/30 07:04:11;;;;;;;7.03;2.17;;;19.00;79.50;;;;;;5113035;28;20058;-61
2023/04/30 07:06:37;;;;;;;6.75;2.10;;;18.70;76.10;;;;;;5101365;28;20075;-63
2023/04/30 07:09:03;;;;;;;5.30;2.10;;;;;;;;;;5092849;28;20073;-62
2023/04/30 07:11:28;;;;;;;6.18;2.47;;;19.10;76.70;;;;;;5111036;28;20096;-62
2023/04/30 07:13:54;;;;;;;4.20;1.88;;;19.20;77.40;;;;;;5094374;28;20443;-61
2023/04/30 07:16:20;;;;;;;4.40;1.75;;;19.30;79.20;;;;;;5104293;28;20048;-62
2023/04/30 07:18:48;;;;;;;5.10;1.80;;;19.30;78.90;;;;;;5105091;28;20035;-62
2023/04/30 07:21:14;;;;;;;4.72;1.90;;;19.40;77.10;;;;;;5113735;28;20390;-63
2023/04/30 07:23:41;;;;;;;7.50;1.95;;;19.50;79.00;;;;;;5096574;28;20040;-61
2023/04/30 07:26:07;;;;;;;5.22;1.65;;;19.30;78.70;;;;;;5088077;28;20040;-62
2023/04/30 07:28:33;;;;;;;7.00;2.03;;;;;;;;;;5094064;28;20100;-61
2023/04/30 07:30:59;;;;;;;4.50;1.70;;;19.70;75.30;;;;;;5086175;28;20401;-63
2023/04/30 07:33:25;;;;;;;8.65;2.05;;;19.60;78.20;;;;;;5113285;28;20043;-61
2023/04/30 07:35:51;;;;;;;6.70;2.20;;;19.90;78.20;;;;;;5094422;28;20040;-61
2023/04/30 07:38:18;;;;;;;5.65;2.08;;;;;;;;;;5095194;28;20508;-62
2023/04/30 07:40:43;;;;;;;5.57;1.95;;;20.20;78.00;;;;;;5111691;28;20126;-62
2023/04/30 07:43:10;;;;;;;4.75;1.90;;;19.90;77.80;;;;;;5107455;28;20509;-62
2023/04/30 07:45:36;;;;;;;5.80;2.10;;;20.20;77.60;;;;;;5110564;28;20066;-62
2023/04/30 07:48:02;;;;;;;6.22;2.50;;;20.00;77.40;;;;;;5112148;28;20040;-61
2023/04/30 07:50:32;;;;;;;5.43;2.00;;;20.50;77.40;;;;;;5091077;28;20059;-61
2023/04/30 07:52:58;;;;;;;6.05;2.17;;;20.70;77.50;;;;;;5112629;28;20071;-62
2023/04/30 07:55:24;;;;;;;6.82;1.92;;;;;;;;;;5112504;28;20083;-63
2023/04/30 07:57:50;;;;;;;8.57;2.47;;;20.70;77.00;;;;;;5110975;28;20048;-61
2023/04/30 08:00:16;;;;;;;4.05;1.95;;;20.80;73.80;;;;;;5112353;28;20382;-61
2023/04/30 08:02:47;;;;;;;6.78;1.63;;;20.80;76.80;;;;;;5095051;28;20126;-62
2023/04/30 08:05:12;;;;;;;7.70;1.90;;;20.90;76.70;;;;;;5094213;28;20473;-62
2023/04/30 08:07:38;;;;;;;5.05;2.05;;;20.80;76.60;;;;;;5111170;28;20043;-61
2023/04/30 08:10:05;;;;;;;7.25;2.35;;;20.90;76.70;;;;;;5111950;28;20079;-62
2023/04/30 08:12:31;;;;;;;5.72;2.05;;;;;;;;;;5110478;28;20040;-63
2023/04/30 08:15:04;;;;;;;4.63;1.80;;;20.50;73.00;;;;;;5108542;28;20496;-63
2023/04/30 08:17:30;;;;;;;;;;;20.90;73.30;;;;;;5110397;28;20114;-62
2023/04/30 08:19:56;;;;;;;5.80;2.30;;;;;;;;;;5111134;28;20020;-64
2023/04/30 08:22:22;;;;;;;6.00;2.08;;;20.60;75.00;;;;;;5112620;28;20048;-62
2023/04/30 08:24:48;;;;;;;5.47;1.90;;;;;;;;;;5092722;28;20075;-62
2023/04/30 08:27:15;;;;;;;4.78;2.10;;;20.90;76.30;;;;;;5112282;28;20039;-62
2023/04/30 08:29:40;;;;;;;3.63;1.60;;;20.80;76.40;;;;;;5111768;28;20060;-62
2023/04/30 08:32:08;;;;;;;4.38;2.03;;;;;;;;;;5095787;28;20050;-63
2023/04/30 08:34:33;;;;;;;5.43;2.22;;;20.80;72.30;;;;;;5110860;28;20135;-62
2023/04/30 08:37:00;;;;;;;5.65;2.13;;;20.90;76.20;;;;;;5112846;28;20118;-61
2023/04/30 08:39:26;;;;;;;7.30;2.20;;;;;;;;;;5093654;28;20052;-61
2023/04/30 08:41:54;;;;;;;5.03;1.95;;;21.00;76.10;;;;;;5074287;28;20048;-61
2023/04/30 08:44:22;;;;;;;5.63;2.00;;;20.90;73.10;;;;;;5092855;28;20044;-62
2023/04/30 08:46:52;;;;;;;6.40;2.10;;;21.20;73.00;;;;;;5090213;28;20042;-64
2023/04/30 08:49:18;;;;;;;5.60;2.10;;;21.00;75.90;;;;;;5079765;28;20109;-62
2023/04/30 08:51:45;;;;;;;4.70;1.98;;;21.20;72.90;;;;;;5115446;28;20043;-64
2023/04/30 08:54:11;;;;;;;4.93;2.00;;;20.90;75.70;;;;;;5098790;28;20048;-62
2023/04/30 08:56:37;;;;;;;9.88;2.53;;;;;;;;;;5111406;28;20073;-62
2023/04/30 08:59:04;;;;;;;5.82;2.22;;;;;;;;;;5080055;28;20055;-63
2023/04/30 09:01:30;;;;;;;6.40;2.00;;;;;;;;;;5116634;28;20114;-62
2023/04/30 09:03:56;;;;;;;5.50;1.95;;;21.20;75.80;;;;;;5095495;28;20139;-61
2023/04/30 09:06:22;;;;;;;4.97;1.90;;;21.10;75.80;;;;;;5114892;28;20036;-62
2023/04/30 09:08:48;;;;;;;6.30;2.25;;;21.30;72.50;;;;;;5110648;28;20044;-65
2023/04/30 09:11:21;;;;;;;5.35;2.22;;;21.30;71.60;;;;;;5113228;28;20156;-62
2023/04/30 09:13:48;;;;;;;5.32;1.83;;;21.10;75.80;;;;;;5104013;28;20048;-62
2023/04/30 09:16:14;;;;;;;5.70;1.95;;;21.00;75.80;;;;;;5096021;28;20610;-64
2023/04/30 09:18:40;;;;;;;6.13;1.98;;;21.20;75.90;;;;;;5115039;28;20040;-62
2023/04/30 09:21:07;;;;;;;5.68;2.10;;;21.00;75.80;;;;;;5095385;28;20036;-62
2023/04/30 09:23:33;;;;;;;7.57;2.40;;;;;;;;;;5115255;28;20586;-63
2023/04/30 09:25:59;;;;;;;5.03;2.08;;;21.20;75.90;;;;;;5096397;28;20504;-63
2023/04/30 09:28:27;;;;;;;5.68;2.17;;;21.30;76.00;;;;;;5114898;28;20043;-62
2023/04/30 09:30:56;;;;;;;7.47;2.45;;;21.40;76.00;;;;;;5115078;28;20409;-62
2023/04/30 09:33:22;;;;;;;6.95;1.88;;;21.10;75.70;;;;;;5109301;28;20172;-61
2023/04/30 09:35:48;;;;;;;5.78;1.85;;;21.30;75.90;;;;;;5114606;28;20115;-62
2023/04/30 09:38:30;;;;;;;8.07;2.60;;;21.30;75.90;;;;;;5113804;28;20063;-61
2023/04/30 09:41:00;;;;;;;6.45;2.45;;;21.30;72.80;;;;;;5114943;28;20055;-64
2023/04/30 09:43:29;;;;;;;5.28;2.00;;;21.30;75.90;;;;;;5114110;28;20040;-62
2023/04/30 09:45:57;;;;;;;5.07;2.17;;;21.20;75.80;;;;;;5104966;28;20413;-63
2023/04/30 09:48:23;;;;;;;4.72;2.13;;;21.20;75.80;;;;;;5094199;28;20063;-62
2023/04/30 09:50:50;;;;;;;8.20;2.30;;;;;;;;;;5097280;28;20047;-64
2023/04/30 09:53:18;;;;;;;5.30;2.25;;;21.50;75.00;;;;;;5113945;28;20055;-62
2023/04/30 09:55:46;;;;;;;5.32;2.00;;;21.30;72.70;;;;;;5112418;28;20044;-62
2023/04/30 09:58:12;;;;;;;7.00;1.90;;;;;;;;;;5091656;28;20063;-64
2023/04/30 10:00:38;;;;;;;4.55;1.75;;;;;;;;;;5094734;28;20044;-62
2023/04/30 10:03:08;;;;;;;5.95;2.13;;;21.10;75.50;;;;;;5077772;28;20048;-61
2023/04/30 10:05:41;;;;;;;5.25;2.30;;;21.10;75.50;;;;;;5113506;28;20074;-62
2023/04/30 10:08:27;;;;;;;4.05;1.58;;;21.40;75.70;;;;;;5094787;28;20046;-62
2023/04/30 10:11:02;;;;;;;6.95;1.80;;;20.90;75.40;;;;;;5095643;28;20112;-62
2023/04/30 10:13:30;;;;;;;4.72;2.00;;;21.10;75.50;;;;;;5070881;28;20169;-62
2023/04/30 10:15:58;;;;;;;5.40;2.17;;;21.00;75.40;;;;;;5095563;28;20047;-63
2023/04/30 10:18:29;;;;;;;5.38;2.15;;;21.10;75.50;;;;;;5110760;28;20032;-62
2023/04/30 10:20:54;;;;;;;5.90;1.95;;;21.10;75.60;;;;;;5096912;28;20059;-62
2023/04/30 10:23:21;;;;;;;6.13;2.13;;;21.20;75.70;;;;;;5113644;28;20039;-62
2023/04/30 10:25:47;;;;;;;6.22;2.40;;;21.00;74.40;;;;;;5114968;28;20112;-63
2023/04/30 10:28:13;;;;;;;5.72;1.80;;;;;;;;;;5111605;28;20056;-62
2023/04/30 10:30:41;;;;;;;8.75;2.03;;;20.80;75.50;;;;;;5099241;28;20429;-62
2023/04/30 10:33:16;;;;;;;4.88;1.73;;;20.90;71.30;;;;;;5104942;28;20055;-63
2023/04/30 10:35:55;;;;;;;4.45;2.10;;;21.00;71.10;;;;;;5086651;28;20143;-63
2023/04/30 10:38:22;;;;;;;3.42;1.77;;;20.70;73.30;;;;;;5077333;28;20044;-61
2023/04/30 10:40:48;;;;;;;4.07;1.75;;;20.90;75.60;;;;;;5094242;28;20173;-62
2023/04/30 10:43:17;;;;;;;6.80;2.03;;;20.90;75.50;;;;;;5096335;28;20114;-63
2023/04/30 10:45:43;;;;;;;5.38;2.00;;;20.90;75.00;;;;;;5081059;28;20141;-64
2023/04/30 10:48:09;;;;;;;5.85;1.80;;;;;;;;;;5097583;28;20101;-64
2023/04/30 10:50:42;;;;;;;5.32;1.90;;;20.80;75.00;;;;;;5074111;28;20082;-62
2023/04/30 10:53:12;;;;;;;5.40;2.13;;;20.80;73.50;;;;;;5095240;28;20393;-63
2023/04/30 10:56:07;;;;;;;5.82;1.90;;;20.80;72.80;;;;;;5114420;28;20388;-62
2023/04/30 10:58:38;;;;;;;5.80;2.20;;;20.90;72.60;;;;;;5111634;28;20130;-61
2023/04/30 11:01:10;;;;;;;5.32;2.00;;;20.90;75.70;;;;;;5109884;28;20054;-63
2023/04/30 11:03:36;;;;;;;5.47;1.80;;;20.50;75.80;;;;;;5104313;28;20126;-62
2023/04/30 11:06:28;;;;;;;5.15;1.70;;;20.80;73.40;;;;;;5093948;28;20355;-61
2023/04/30 11:08:54;;;;;;;3.13;1.58;;;20.90;76.30;;;;;;5081723;28;20060;-63
2023/04/30 11:11:20;;;;;;;3.78;1.50;;;;;;;;;;5076230;28;20088;-62
2023/04/30 11:13:48;;;;;;;7.13;2.15;;;20.80;73.10;;;;;;5093588;28;20055;-62
2023/04/30 11:16:18;;;;;;;5.55;1.83;;;20.60;71.70;;;;;;5095731;28;20055;-63
2023/04/30 11:18:45;;;;;;;5.03;1.67;;;20.70;72.50;;;;;;5093694;28;20044;-62
2023/04/30 11:21:11;;;;;;;7.60;2.20;;;20.80;76.40;;;;;;5112085;28;20092;-61
2023/04/30 11:23:41;;;;;;;4.38;1.80;;;20.70;73.20;;;;;;5082609;28;20511;-62
2023/04/30 11:26:06;;;;;;;6.05;2.10;;;20.90;73.30;;;;;;5113936;28;20036;-61
2023/04/30 11:28:36;;;;;;;7.30;1.98;;;;;;;;;;5094455;28;20405;-61
2023/04/30 11:31:02;;;;;;;5.22;1.95;;;21.00;76.60;;;;;;5112566;28;20393;-61
2023/04/30 11:33:29;;;;;;;4.35;1.80;;;20.90;73.50;;;;;;5095264;28;20101;-63
2023/04/30 11:35:56;;;;;;;4.90;1.95;;;20.80;76.50;;;;;;5112467;28;20132;-62
2023/04/30 11:38:26;;;;;;;5.20;1.80;;;20.80;73.20;;;;;;5100817;28;20039;-61
2023/04/30 11:40:53;;;;;;;5.55;2.15;;;20.90;76.50;;;;;;5095485;28;20050;-62
2023/04/30 11:43:25;;;;;;;7.32;2.47;;;20.80;73.50;;;;;;5095152;28;20053;-61
2023/04/30 11:46:17;;;;;;;;;;;21.00;73.80;;;;;;5107077;28;20408;-62
2023/04/30 11:48:44;;;;;;;3.78;1.80;;;20.80;75.10;;;;;;5107335;28;19941;-62
2023/04/30 11:51:14;;;;;;;5.80;2.08;;;20.80;72.20;;;;;;5107775;28;20149;-65
2023/04/30 11:53:40;;;;;;;5.20;1.90;;;;;;;;;;5063579;28;20110;-61
2023/04/30 11:56:07;;;;;;;6.38;2.05;;;20.70;76.40;;;;;;5099976;28;20093;-62
2023/04/30 11:58:37;;;;;;;6.03;2.22;;;20.90;72.30;;;;;;5100373;28;20047;-61
2023/04/30 12:01:08;;;;;;;5.85;2.03;;;20.90;76.20;;;;;;5109295;28;20039;-62
2023/04/30 12:03:47;;;;;;;8.52;2.05;;;21.00;73.40;;;;;;5092891;28;20077;-64
2023/04/30 12:06:23;;;;;;;7.47;2.00;;;21.00;71.80;;;;;;5110229;28;20042;-67
2023/04/30 12:09:03;;;;;;;6.35;2.50;;;20.70;73.10;;;;;;5111644;28;20118;-68
2023/04/30 12:11:30;;;;;;;4.97;2.08;;;20.80;76.00;;;;;;5098601;28;20132;-62
2023/04/30 12:14:06;;;;;;;5.45;2.13;;;20.80;72.30;;;;;;5091022;28;20060;-68
2023/04/30 12:16:47;;;;;;;7.35;2.53;;;20.50;71.50;;;;;;5109752;28;20040;-67
2023/04/30 12:19:15;;;;;;;6.28;2.28;;;20.70;76.10;;;;;;5092157;28;20049;-68
2023/04/30 12:21:43;;;;;;;7.10;2.22;;;20.60;74.00;;;;;;5098517;28;20035;-64
2023/04/30 12:24:11;;;;;;;6.57;2.17;;;20.80;76.00;;;;;;5098864;28;20079;-63
2023/04/30 12:26:38;;;;;;;7.70;2.47;;;;;;;;;;5082144;28;20118;-64
2023/04/30 12:29:16;;;;;;;6.32;3.03;;;20.80;72.80;;;;;;5091686;28;20059;-68
2023/04/30 12:31:43;;;;;;;8.18;2.70;;;20.70;74.50;;;;;;5094830;28;20050;-66
2023/04/30 12:34:12;;;;;;;8.18;2.58;;;20.70;75.50;;;;;;5096340;28;20044;-69
2023/04/30 12:36:41;;;;;;;7.20;2.67;;;20.70;71.30;;;;;;5096580;28;20383;-70
2023/04/30 12:39:07;;;;;;;7.18;3.20;;;;;;;;;;5094218;28;20055;-69
2023/04/30 12:41:40;;;;;;;8.30;2.78;;;20.30;75.30;;;;;;5085266;28;20040;-68
2023/04/30 12:44:26;;;;;;;9.43;3.08;;;20.10;70.60;;;;;;5089041;28;20060;-68
2023/04/30 12:46:55;;;;;;;6.30;2.60;;;20.40;75.40;;;;;;5086013;28;20048;-66
2023/04/30 12:49:27;;;;;;;7.30;3.30;;;20.40;75.50;;;;;;5095117;28;20455;-70
2023/04/30 12:52:01;;;;;;;6.88;2.63;;;20.40;75.60;;;;;;5094007;28;20135;-67
2023/04/30 12:54:31;;;;;;;7.63;2.60;;;20.40;72.40;;;;;;5094651;28;20052;-65
2023/04/30 12:57:00;;;;;;;6.15;2.30;;;20.40;75.30;;;;;;5093296;28;20485;-69
2023/04/30 12:59:26;;;;;;;8.13;2.47;;;20.30;74.40;;;;;;5089451;28;20051;-69
2023/04/30 13:01:53;;;;;;;8.38;2.42;;;;;;;;;;5094118;28;20047;-69
2023/04/30 13:04:20;;;;;;;6.95;2.10;;;20.50;75.60;;;;;;5093552;28;20123;-65
2023/04/30 13:06:45;;;;;;;8.77;2.50;;;20.40;75.60;;;;;;5094200;28;20162;-70
2023/04/30 13:09:11;;;;;;;8.13;2.70;;;20.50;75.60;;;;;;5093014;28;20139;-69
2023/04/30 13:11:37;;;;;;;6.85;2.40;;;20.40;75.60;;;;;;5091061;28;20047;-72
2023/04/30 13:14:03;;;;;;;6.35;2.53;;;;;;;;;;5093173;28;20044;-66
2023/04/30 13:16:30;;;;;;;9.82;2.60;;;20.60;72.90;;;;;;5093028;28;20048;-69
2023/04/30 13:18:56;;;;;;;10.20;3.40;;;20.20;75.50;;;;;;5090807;28;20396;-67
2023/04/30 13:21:23;;;;;;;10.43;2.92;;;;;;;;;;5083029;28;20170;-68
2023/04/30 13:23:49;;;;;;;6.07;2.60;;;;;;;;;;5092163;28;20101;-69